sensor_id;sensor_type;location;lat;lon;timestamp;P1;durP1;ratioP1;P2;durP2;ratioP2
64199;SDS011;50516;52.272;5.136;2023-06-14T00:00:17;10.18;;;4.18;;
64199;SDS011;50516;52.272;5.136;2023-06-14T00:02:42;9.65;;;4.00;;
64199;SDS011;50516;52.272;5.136;2023-06-14T00:05:07;9.00;;;3.65;;
64199;SDS011;50516;52.272;5.136;2023-06-14T00:07:37;8.45;;;4.10;;
64199;SDS011;50516;52.272;5.136;2023-06-14T00:10:07;11.95;;;4.18;;
64199;SDS011;50516;52.272;5.136;2023-06-14T00:12:32;11.90;;;4.10;;
64199;SDS011;50516;52.272;5.136;2023-06-14T00:14:58;8.05;;;4.05;;
64199;SDS011;50516;52.272;5.136;2023-06-14T00:17:23;10.63;;;3.97;;
64199;SDS011;50516;52.272;5.136;2023-06-14T00:19:49;7.10;;;3.63;;
64199;SDS011;50516;52.272;5.136;2023-06-14T00:22:15;13.77;;;3.97;;
64199;SDS011;50516;52.272;5.136;2023-06-14T00:24:40;12.70;;;4.22;;
64199;SDS011;50516;52.272;5.136;2023-06-14T00:27:05;10.18;;;4.00;;
64199;SDS011;50516;52.272;5.136;2023-06-14T00:29:31;7.05;;;4.05;;
64199;SDS011;50516;52.272;5.136;2023-06-14T00:31:56;9.93;;;4.15;;
64199;SDS011;50516;52.272;5.136;2023-06-14T00:34:22;7.25;;;4.70;;
64199;SDS011;50516;52.272;5.136;2023-06-14T00:36:47;9.82;;;4.05;;
64199;SDS011;50516;52.272;5.136;2023-06-14T00:39:12;6.22;;;3.95;;
64199;SDS011;50516;52.272;5.136;2023-06-14T00:41:37;6.75;;;3.70;;
64199;SDS011;50516;52.272;5.136;2023-06-14T00:44:04;10.95;;;3.95;;
64199;SDS011;50516;52.272;5.136;2023-06-14T00:46:29;9.85;;;3.70;;
64199;SDS011;50516;52.272;5.136;2023-06-14T00:48:55;10.75;;;3.40;;
64199;SDS011;50516;52.272;5.136;2023-06-14T00:51:22;9.35;;;3.53;;
64199;SDS011;50516;52.272;5.136;2023-06-14T00:53:47;10.35;;;3.75;;
64199;SDS011;50516;52.272;5.136;2023-06-14T00:56:13;6.35;;;3.70;;
64199;SDS011;50516;52.272;5.136;2023-06-14T00:58:39;8.05;;;3.75;;
64199;SDS011;50516;52.272;5.136;2023-06-14T01:01:06;10.10;;;3.95;;
64199;SDS011;50516;52.272;5.136;2023-06-14T01:03:31;8.30;;;4.68;;
64199;SDS011;50516;52.272;5.136;2023-06-14T01:11:22;10.45;;;4.80;;
64199;SDS011;50516;52.272;5.136;2023-06-14T01:13:53;13.45;;;4.00;;
64199;SDS011;50516;52.272;5.136;2023-06-14T01:16:21;11.02;;;4.30;;
64199;SDS011;50516;52.272;5.136;2023-06-14T01:18:46;11.75;;;4.97;;
64199;SDS011;50516;52.272;5.136;2023-06-14T01:21:22;11.57;;;3.65;;
64199;SDS011;50516;52.272;5.136;2023-06-14T01:23:49;11.38;;;3.63;;
64199;SDS011;50516;52.272;5.136;2023-06-14T01:26:18;6.65;;;3.63;;
64199;SDS011;50516;52.272;5.136;2023-06-14T01:28:45;6.55;;;3.60;;
64199;SDS011;50516;52.272;5.136;2023-06-14T01:31:15;10.23;;;3.70;;
64199;SDS011;50516;52.272;5.136;2023-06-14T01:33:44;10.88;;;4.38;;
64199;SDS011;50516;52.272;5.136;2023-06-14T01:36:11;13.52;;;4.63;;
64199;SDS011;50516;52.272;5.136;2023-06-14T01:38:37;11.70;;;4.78;;
64199;SDS011;50516;52.272;5.136;2023-06-14T01:41:03;8.07;;;3.47;;
64199;SDS011;50516;52.272;5.136;2023-06-14T01:43:29;11.52;;;3.63;;
64199;SDS011;50516;52.272;5.136;2023-06-14T01:45:56;5.47;;;3.42;;
64199;SDS011;50516;52.272;5.136;2023-06-14T01:48:22;8.02;;;3.90;;
64199;SDS011;50516;52.272;5.136;2023-06-14T01:50:48;5.65;;;3.40;;
64199;SDS011;50516;52.272;5.136;2023-06-14T01:53:15;8.75;;;4.45;;
64199;SDS011;50516;52.272;5.136;2023-06-14T01:55:43;8.75;;;3.55;;
64199;SDS011;50516;52.272;5.136;2023-06-14T01:58:09;9.70;;;4.03;;
64199;SDS011;50516;52.272;5.136;2023-06-14T02:00:35;10.30;;;4.05;;
64199;SDS011;50516;52.272;5.136;2023-06-14T02:03:01;6.80;;;3.72;;
64199;SDS011;50516;52.272;5.136;2023-06-14T02:05:29;11.07;;;4.10;;
64199;SDS011;50516;52.272;5.136;2023-06-14T02:07:55;9.23;;;3.70;;
64199;SDS011;50516;52.272;5.136;2023-06-14T02:10:20;6.55;;;3.63;;
64199;SDS011;50516;52.272;5.136;2023-06-14T02:12:46;8.50;;;3.85;;
64199;SDS011;50516;52.272;5.136;2023-06-14T02:15:11;10.98;;;4.10;;
64199;SDS011;50516;52.272;5.136;2023-06-14T02:17:44;8.00;;;3.47;;
64199;SDS011;50516;52.272;5.136;2023-06-14T02:20:14;10.93;;;3.88;;
64199;SDS011;50516;52.272;5.136;2023-06-14T02:22:40;9.27;;;3.80;;
64199;SDS011;50516;52.272;5.136;2023-06-14T02:25:05;10.70;;;4.32;;
64199;SDS011;50516;52.272;5.136;2023-06-14T02:27:32;11.70;;;3.78;;
64199;SDS011;50516;52.272;5.136;2023-06-14T02:29:57;12.18;;;3.95;;
64199;SDS011;50516;52.272;5.136;2023-06-14T02:32:23;10.15;;;3.67;;
64199;SDS011;50516;52.272;5.136;2023-06-14T02:34:48;8.90;;;3.80;;
64199;SDS011;50516;52.272;5.136;2023-06-14T02:37:15;8.73;;;3.60;;
64199;SDS011;50516;52.272;5.136;2023-06-14T02:39:41;10.27;;;4.50;;
64199;SDS011;50516;52.272;5.136;2023-06-14T02:42:06;11.13;;;3.88;;
64199;SDS011;50516;52.272;5.136;2023-06-14T02:44:32;9.43;;;3.60;;
64199;SDS011;50516;52.272;5.136;2023-06-14T02:46:57;14.20;;;3.90;;
64199;SDS011;50516;52.272;5.136;2023-06-14T02:49:24;7.75;;;3.45;;
64199;SDS011;50516;52.272;5.136;2023-06-14T02:51:49;8.02;;;3.80;;
64199;SDS011;50516;52.272;5.136;2023-06-14T02:54:15;8.45;;;3.65;;
64199;SDS011;50516;52.272;5.136;2023-06-14T02:56:40;13.77;;;4.00;;
64199;SDS011;50516;52.272;5.136;2023-06-14T02:59:06;17.50;;;3.83;;
64199;SDS011;50516;52.272;5.136;2023-06-14T03:01:32;9.25;;;3.88;;
64199;SDS011;50516;52.272;5.136;2023-06-14T03:04:01;7.40;;;3.50;;
64199;SDS011;50516;52.272;5.136;2023-06-14T03:06:28;10.32;;;4.15;;
64199;SDS011;50516;52.272;5.136;2023-06-14T03:08:56;9.45;;;4.32;;
64199;SDS011;50516;52.272;5.136;2023-06-14T03:11:25;6.65;;;3.47;;
64199;SDS011;50516;52.272;5.136;2023-06-14T03:13:51;9.15;;;3.53;;
64199;SDS011;50516;52.272;5.136;2023-06-14T03:16:17;14.35;;;3.75;;
64199;SDS011;50516;52.272;5.136;2023-06-14T03:18:46;10.27;;;3.50;;
64199;SDS011;50516;52.272;5.136;2023-06-14T03:21:12;21.98;;;4.68;;
64199;SDS011;50516;52.272;5.136;2023-06-14T03:23:38;5.65;;;3.55;;
64199;SDS011;50516;52.272;5.136;2023-06-14T03:26:03;7.18;;;3.90;;
64199;SDS011;50516;52.272;5.136;2023-06-14T03:28:28;10.60;;;3.55;;
64199;SDS011;50516;52.272;5.136;2023-06-14T03:30:56;7.75;;;3.45;;
64199;SDS011;50516;52.272;5.136;2023-06-14T03:33:22;7.68;;;3.63;;
64199;SDS011;50516;52.272;5.136;2023-06-14T03:35:47;6.43;;;3.60;;
64199;SDS011;50516;52.272;5.136;2023-06-14T03:38:12;9.88;;;4.35;;
64199;SDS011;50516;52.272;5.136;2023-06-14T03:40:38;6.47;;;3.40;;
64199;SDS011;50516;52.272;5.136;2023-06-14T03:43:03;6.60;;;3.17;;
64199;SDS011;50516;52.272;5.136;2023-06-14T03:45:28;7.18;;;3.70;;
64199;SDS011;50516;52.272;5.136;2023-06-14T03:47:54;14.07;;;4.00;;
64199;SDS011;50516;52.272;5.136;2023-06-14T03:50:19;11.07;;;3.78;;
64199;SDS011;50516;52.272;5.136;2023-06-14T03:52:45;10.52;;;3.70;;
64199;SDS011;50516;52.272;5.136;2023-06-14T03:55:11;10.75;;;3.58;;
64199;SDS011;50516;52.272;5.136;2023-06-14T03:57:38;15.05;;;3.67;;
64199;SDS011;50516;52.272;5.136;2023-06-14T04:00:04;5.38;;;3.38;;
64199;SDS011;50516;52.272;5.136;2023-06-14T04:02:31;10.82;;;3.58;;
64199;SDS011;50516;52.272;5.136;2023-06-14T04:04:56;8.88;;;3.78;;
64199;SDS011;50516;52.272;5.136;2023-06-14T04:07:21;6.20;;;3.55;;
64199;SDS011;50516;52.272;5.136;2023-06-14T04:09:47;8.05;;;3.80;;
64199;SDS011;50516;52.272;5.136;2023-06-14T04:12:13;6.10;;;3.53;;
64199;SDS011;50516;52.272;5.136;2023-06-14T04:14:39;11.23;;;3.40;;
64199;SDS011;50516;52.272;5.136;2023-06-14T04:17:05;7.40;;;4.32;;
64199;SDS011;50516;52.272;5.136;2023-06-14T04:19:31;8.32;;;3.92;;
64199;SDS011;50516;52.272;5.136;2023-06-14T04:21:56;7.95;;;3.70;;
64199;SDS011;50516;52.272;5.136;2023-06-14T04:24:22;8.00;;;3.50;;
64199;SDS011;50516;52.272;5.136;2023-06-14T04:26:48;9.00;;;3.75;;
64199;SDS011;50516;52.272;5.136;2023-06-14T04:29:14;6.20;;;3.70;;
64199;SDS011;50516;52.272;5.136;2023-06-14T04:31:41;9.05;;;3.72;;
64199;SDS011;50516;52.272;5.136;2023-06-14T04:34:07;11.65;;;3.55;;
64199;SDS011;50516;52.272;5.136;2023-06-14T04:36:33;6.90;;;3.63;;
64199;SDS011;50516;52.272;5.136;2023-06-14T04:39:05;7.35;;;3.63;;
64199;SDS011;50516;52.272;5.136;2023-06-14T04:41:31;6.82;;;3.90;;
64199;SDS011;50516;52.272;5.136;2023-06-14T04:43:57;8.57;;;3.95;;
64199;SDS011;50516;52.272;5.136;2023-06-14T04:46:29;7.35;;;3.38;;
64199;SDS011;50516;52.272;5.136;2023-06-14T04:48:57;7.95;;;3.50;;
64199;SDS011;50516;52.272;5.136;2023-06-14T04:51:27;5.75;;;3.67;;
64199;SDS011;50516;52.272;5.136;2023-06-14T04:53:56;11.80;;;3.55;;
64199;SDS011;50516;52.272;5.136;2023-06-14T04:56:24;9.32;;;3.60;;
64199;SDS011;50516;52.272;5.136;2023-06-14T04:58:54;10.40;;;3.47;;
64199;SDS011;50516;52.272;5.136;2023-06-14T05:01:21;7.70;;;3.92;;
64199;SDS011;50516;52.272;5.136;2023-06-14T05:03:50;8.52;;;3.58;;
64199;SDS011;50516;52.272;5.136;2023-06-14T05:06:15;9.25;;;3.85;;
64199;SDS011;50516;52.272;5.136;2023-06-14T05:08:42;8.70;;;3.65;;
64199;SDS011;50516;52.272;5.136;2023-06-14T05:11:07;5.63;;;3.30;;
64199;SDS011;50516;52.272;5.136;2023-06-14T05:13:33;6.72;;;3.80;;
64199;SDS011;50516;52.272;5.136;2023-06-14T05:15:59;9.25;;;3.67;;
64199;SDS011;50516;52.272;5.136;2023-06-14T05:18:25;7.55;;;4.03;;
64199;SDS011;50516;52.272;5.136;2023-06-14T05:20:50;9.82;;;3.60;;
64199;SDS011;50516;52.272;5.136;2023-06-14T05:23:16;7.70;;;3.70;;
64199;SDS011;50516;52.272;5.136;2023-06-14T05:25:42;6.32;;;3.60;;
64199;SDS011;50516;52.272;5.136;2023-06-14T05:28:08;6.53;;;3.55;;
64199;SDS011;50516;52.272;5.136;2023-06-14T05:30:34;9.35;;;3.50;;
64199;SDS011;50516;52.272;5.136;2023-06-14T05:32:59;8.18;;;3.15;;
64199;SDS011;50516;52.272;5.136;2023-06-14T05:35:25;7.82;;;3.72;;
64199;SDS011;50516;52.272;5.136;2023-06-14T05:37:51;13.18;;;3.63;;
64199;SDS011;50516;52.272;5.136;2023-06-14T05:40:18;10.38;;;3.67;;
64199;SDS011;50516;52.272;5.136;2023-06-14T05:42:44;5.30;;;3.33;;
64199;SDS011;50516;52.272;5.136;2023-06-14T05:45:09;4.97;;;3.15;;
64199;SDS011;50516;52.272;5.136;2023-06-14T05:47:35;6.05;;;3.45;;
64199;SDS011;50516;52.272;5.136;2023-06-14T05:50:00;10.38;;;3.78;;
64199;SDS011;50516;52.272;5.136;2023-06-14T05:52:25;9.40;;;4.00;;
64199;SDS011;50516;52.272;5.136;2023-06-14T05:54:51;8.27;;;4.20;;
64199;SDS011;50516;52.272;5.136;2023-06-14T05:57:16;9.68;;;3.50;;
64199;SDS011;50516;52.272;5.136;2023-06-14T05:59:42;5.97;;;3.20;;
64199;SDS011;50516;52.272;5.136;2023-06-14T06:02:07;12.50;;;4.32;;
64199;SDS011;50516;52.272;5.136;2023-06-14T06:04:32;7.13;;;4.25;;
64199;SDS011;50516;52.272;5.136;2023-06-14T06:06:57;6.15;;;3.10;;
64199;SDS011;50516;52.272;5.136;2023-06-14T06:09:23;7.78;;;3.72;;
64199;SDS011;50516;52.272;5.136;2023-06-14T06:11:48;6.68;;;4.00;;
64199;SDS011;50516;52.272;5.136;2023-06-14T06:14:13;5.25;;;3.50;;
64199;SDS011;50516;52.272;5.136;2023-06-14T06:16:39;8.45;;;3.42;;
64199;SDS011;50516;52.272;5.136;2023-06-14T06:19:05;10.43;;;3.55;;
64199;SDS011;50516;52.272;5.136;2023-06-14T06:21:30;12.93;;;3.53;;
64199;SDS011;50516;52.272;5.136;2023-06-14T06:23:56;10.60;;;3.75;;
64199;SDS011;50516;52.272;5.136;2023-06-14T06:26:22;8.38;;;3.80;;
64199;SDS011;50516;52.272;5.136;2023-06-14T06:28:47;8.50;;;3.80;;
64199;SDS011;50516;52.272;5.136;2023-06-14T06:31:15;11.45;;;3.50;;
64199;SDS011;50516;52.272;5.136;2023-06-14T06:33:41;7.40;;;3.67;;
64199;SDS011;50516;52.272;5.136;2023-06-14T06:36:06;7.38;;;3.45;;
64199;SDS011;50516;52.272;5.136;2023-06-14T06:38:32;12.27;;;3.88;;
64199;SDS011;50516;52.272;5.136;2023-06-14T06:40:57;13.77;;;3.80;;
64199;SDS011;50516;52.272;5.136;2023-06-14T06:43:22;10.05;;;4.28;;
64199;SDS011;50516;52.272;5.136;2023-06-14T06:45:47;8.10;;;3.50;;
64199;SDS011;50516;52.272;5.136;2023-06-14T06:48:13;8.93;;;3.90;;
64199;SDS011;50516;52.272;5.136;2023-06-14T06:50:38;14.20;;;4.20;;
64199;SDS011;50516;52.272;5.136;2023-06-14T06:53:04;5.50;;;3.30;;
64199;SDS011;50516;52.272;5.136;2023-06-14T06:55:30;11.13;;;3.90;;
64199;SDS011;50516;52.272;5.136;2023-06-14T06:57:55;6.90;;;3.83;;
64199;SDS011;50516;52.272;5.136;2023-06-14T07:00:21;9.10;;;3.63;;
64199;SDS011;50516;52.272;5.136;2023-06-14T07:02:46;8.48;;;3.50;;
64199;SDS011;50516;52.272;5.136;2023-06-14T07:05:12;8.88;;;3.83;;
64199;SDS011;50516;52.272;5.136;2023-06-14T07:07:38;5.70;;;3.70;;
64199;SDS011;50516;52.272;5.136;2023-06-14T07:10:04;9.05;;;3.85;;
64199;SDS011;50516;52.272;5.136;2023-06-14T07:12:33;8.60;;;4.18;;
64199;SDS011;50516;52.272;5.136;2023-06-14T07:15:00;11.30;;;4.00;;
64199;SDS011;50516;52.272;5.136;2023-06-14T07:17:26;6.57;;;3.58;;
64199;SDS011;50516;52.272;5.136;2023-06-14T07:19:51;10.00;;;3.67;;
64199;SDS011;50516;52.272;5.136;2023-06-14T07:22:18;10.88;;;3.88;;
64199;SDS011;50516;52.272;5.136;2023-06-14T07:24:43;11.85;;;4.10;;
64199;SDS011;50516;52.272;5.136;2023-06-14T07:27:11;8.68;;;4.35;;
64199;SDS011;50516;52.272;5.136;2023-06-14T07:29:38;7.20;;;3.78;;
64199;SDS011;50516;52.272;5.136;2023-06-14T07:32:03;7.82;;;4.65;;
64199;SDS011;50516;52.272;5.136;2023-06-14T07:34:29;6.95;;;3.55;;
64199;SDS011;50516;52.272;5.136;2023-06-14T07:36:55;7.18;;;4.18;;
64199;SDS011;50516;52.272;5.136;2023-06-14T07:39:20;6.00;;;3.70;;
64199;SDS011;50516;52.272;5.136;2023-06-14T07:41:46;11.63;;;4.20;;
64199;SDS011;50516;52.272;5.136;2023-06-14T07:44:14;6.88;;;3.85;;
64199;SDS011;50516;52.272;5.136;2023-06-14T07:46:40;6.22;;;3.70;;
64199;SDS011;50516;52.272;5.136;2023-06-14T07:49:06;9.73;;;3.55;;
64199;SDS011;50516;52.272;5.136;2023-06-14T07:51:32;6.43;;;3.83;;
64199;SDS011;50516;52.272;5.136;2023-06-14T07:53:58;5.40;;;3.28;;
64199;SDS011;50516;52.272;5.136;2023-06-14T07:56:26;5.10;;;4.20;;
64199;SDS011;50516;52.272;5.136;2023-06-14T07:58:51;8.68;;;3.10;;
64199;SDS011;50516;52.272;5.136;2023-06-14T08:01:17;7.55;;;3.58;;
64199;SDS011;50516;52.272;5.136;2023-06-14T08:03:42;11.45;;;3.47;;
64199;SDS011;50516;52.272;5.136;2023-06-14T08:06:08;12.00;;;4.00;;
64199;SDS011;50516;52.272;5.136;2023-06-14T08:08:33;12.02;;;4.75;;
64199;SDS011;50516;52.272;5.136;2023-06-14T08:10:58;6.57;;;3.75;;
64199;SDS011;50516;52.272;5.136;2023-06-14T08:13:24;6.53;;;3.60;;
64199;SDS011;50516;52.272;5.136;2023-06-14T08:15:49;8.85;;;3.50;;
64199;SDS011;50516;52.272;5.136;2023-06-14T08:18:15;9.18;;;3.60;;
64199;SDS011;50516;52.272;5.136;2023-06-14T08:20:40;5.40;;;3.13;;
64199;SDS011;50516;52.272;5.136;2023-06-14T08:23:06;6.03;;;3.50;;
64199;SDS011;50516;52.272;5.136;2023-06-14T08:25:31;5.75;;;3.47;;
64199;SDS011;50516;52.272;5.136;2023-06-14T08:27:58;6.32;;;3.05;;
64199;SDS011;50516;52.272;5.136;2023-06-14T08:30:23;6.25;;;3.67;;
64199;SDS011;50516;52.272;5.136;2023-06-14T08:32:49;7.20;;;3.50;;
64199;SDS011;50516;52.272;5.136;2023-06-14T08:35:17;7.05;;;3.13;;
64199;SDS011;50516;52.272;5.136;2023-06-14T08:37:43;8.73;;;3.92;;
64199;SDS011;50516;52.272;5.136;2023-06-14T08:40:12;5.57;;;2.97;;
64199;SDS011;50516;52.272;5.136;2023-06-14T08:42:45;8.15;;;3.60;;
64199;SDS011;50516;52.272;5.136;2023-06-14T08:45:13;8.23;;;3.22;;
64199;SDS011;50516;52.272;5.136;2023-06-14T08:47:38;6.65;;;3.05;;
64199;SDS011;50516;52.272;5.136;2023-06-14T08:50:05;8.48;;;3.08;;
64199;SDS011;50516;52.272;5.136;2023-06-14T08:52:31;8.27;;;3.08;;
64199;SDS011;50516;52.272;5.136;2023-06-14T08:55:05;9.05;;;3.00;;
64199;SDS011;50516;52.272;5.136;2023-06-14T08:57:33;5.18;;;3.25;;
64199;SDS011;50516;52.272;5.136;2023-06-14T09:00:02;3.92;;;2.85;;
64199;SDS011;50516;52.272;5.136;2023-06-14T09:02:36;4.93;;;2.85;;
64199;SDS011;50516;52.272;5.136;2023-06-14T09:05:02;5.28;;;2.75;;
64199;SDS011;50516;52.272;5.136;2023-06-14T09:07:28;6.70;;;2.70;;
64199;SDS011;50516;52.272;5.136;2023-06-14T09:10:10;4.60;;;2.90;;
64199;SDS011;50516;52.272;5.136;2023-06-14T09:12:38;10.07;;;3.13;;
64199;SDS011;50516;52.272;5.136;2023-06-14T09:15:07;6.18;;;2.95;;
64199;SDS011;50516;52.272;5.136;2023-06-14T09:17:34;3.58;;;2.80;;
64199;SDS011;50516;52.272;5.136;2023-06-14T09:20:01;5.28;;;2.80;;
64199;SDS011;50516;52.272;5.136;2023-06-14T09:22:31;5.38;;;2.72;;
64199;SDS011;50516;52.272;5.136;2023-06-14T09:24:56;6.57;;;3.25;;
64199;SDS011;50516;52.272;5.136;2023-06-14T09:27:21;5.30;;;2.78;;
64199;SDS011;50516;52.272;5.136;2023-06-14T09:29:47;5.13;;;2.78;;
64199;SDS011;50516;52.272;5.136;2023-06-14T09:32:12;3.80;;;2.80;;
64199;SDS011;50516;52.272;5.136;2023-06-14T09:34:37;5.28;;;2.83;;
64199;SDS011;50516;52.272;5.136;2023-06-14T09:37:03;6.20;;;2.90;;
64199;SDS011;50516;52.272;5.136;2023-06-14T09:39:29;6.57;;;2.80;;
64199;SDS011;50516;52.272;5.136;2023-06-14T09:41:55;5.95;;;2.83;;
64199;SDS011;50516;52.272;5.136;2023-06-14T09:44:20;6.13;;;2.55;;
64199;SDS011;50516;52.272;5.136;2023-06-14T09:46:46;7.43;;;3.00;;
64199;SDS011;50516;52.272;5.136;2023-06-14T09:49:13;6.38;;;2.90;;
64199;SDS011;50516;52.272;5.136;2023-06-14T09:51:45;4.63;;;2.50;;
64199;SDS011;50516;52.272;5.136;2023-06-14T09:54:16;4.38;;;2.70;;
64199;SDS011;50516;52.272;5.136;2023-06-14T09:56:45;5.50;;;3.03;;
64199;SDS011;50516;52.272;5.136;2023-06-14T09:59:12;4.28;;;2.60;;
64199;SDS011;50516;52.272;5.136;2023-06-14T10:01:41;5.75;;;2.47;;
64199;SDS011;50516;52.272;5.136;2023-06-14T10:04:07;4.43;;;2.70;;
64199;SDS011;50516;52.272;5.136;2023-06-14T10:06:36;5.40;;;2.50;;
64199;SDS011;50516;52.272;5.136;2023-06-14T10:09:04;6.68;;;2.70;;
64199;SDS011;50516;52.272;5.136;2023-06-14T10:11:35;8.35;;;3.00;;
64199;SDS011;50516;52.272;5.136;2023-06-14T10:14:03;3.38;;;2.47;;
64199;SDS011;50516;52.272;5.136;2023-06-14T10:16:52;7.88;;;2.70;;
64199;SDS011;50516;52.272;5.136;2023-06-14T10:19:37;9.02;;;2.83;;
64199;SDS011;50516;52.272;5.136;2023-06-14T10:22:14;6.10;;;2.67;;
64199;SDS011;50516;52.272;5.136;2023-06-14T10:24:45;5.78;;;2.85;;
64199;SDS011;50516;52.272;5.136;2023-06-14T10:27:13;4.15;;;2.75;;
64199;SDS011;50516;52.272;5.136;2023-06-14T10:32:23;5.72;;;3.10;;
64199;SDS011;50516;52.272;5.136;2023-06-14T10:34:59;6.43;;;3.70;;
64199;SDS011;50516;52.272;5.136;2023-06-14T10:37:40;7.32;;;2.90;;
64199;SDS011;50516;52.272;5.136;2023-06-14T10:40:06;5.97;;;2.55;;
64199;SDS011;50516;52.272;5.136;2023-06-14T10:42:33;5.57;;;2.60;;
64199;SDS011;50516;52.272;5.136;2023-06-14T10:44:59;7.43;;;3.50;;
64199;SDS011;50516;52.272;5.136;2023-06-14T10:50:04;4.63;;;2.90;;
64199;SDS011;50516;52.272;5.136;2023-06-14T10:52:35;5.80;;;2.63;;
64199;SDS011;50516;52.272;5.136;2023-06-14T10:57:45;5.35;;;2.35;;
64199;SDS011;50516;52.272;5.136;2023-06-14T11:00:11;5.85;;;2.50;;
64199;SDS011;50516;52.272;5.136;2023-06-14T11:05:30;4.38;;;3.10;;
64199;SDS011;50516;52.272;5.136;2023-06-14T11:11:21;8.50;;;2.75;;
64199;SDS011;50516;52.272;5.136;2023-06-14T11:13:48;5.80;;;2.92;;
64199;SDS011;50516;52.272;5.136;2023-06-14T11:16:14;3.70;;;2.80;;
64199;SDS011;50516;52.272;5.136;2023-06-14T11:18:41;8.40;;;3.10;;
64199;SDS011;50516;52.272;5.136;2023-06-14T11:21:08;3.97;;;2.65;;
64199;SDS011;50516;52.272;5.136;2023-06-14T11:23:34;3.95;;;2.67;;
64199;SDS011;50516;52.272;5.136;2023-06-14T11:26:00;5.97;;;2.65;;
64199;SDS011;50516;52.272;5.136;2023-06-14T11:28:35;6.50;;;2.83;;
64199;SDS011;50516;52.272;5.136;2023-06-14T11:31:02;7.10;;;2.85;;
64199;SDS011;50516;52.272;5.136;2023-06-14T11:33:28;4.10;;;2.75;;
64199;SDS011;50516;52.272;5.136;2023-06-14T11:35:53;7.95;;;2.67;;
64199;SDS011;50516;52.272;5.136;2023-06-14T11:38:19;3.90;;;2.80;;
64199;SDS011;50516;52.272;5.136;2023-06-14T11:40:47;5.00;;;2.90;;
64199;SDS011;50516;52.272;5.136;2023-06-14T11:43:12;6.75;;;2.55;;
64199;SDS011;50516;52.272;5.136;2023-06-14T11:45:39;6.05;;;2.97;;
64199;SDS011;50516;52.272;5.136;2023-06-14T11:48:04;5.50;;;3.10;;
64199;SDS011;50516;52.272;5.136;2023-06-14T11:50:31;4.80;;;2.67;;
64199;SDS011;50516;52.272;5.136;2023-06-14T11:52:59;5.43;;;2.65;;
64199;SDS011;50516;52.272;5.136;2023-06-14T11:55:31;10.02;;;2.72;;
64199;SDS011;50516;52.272;5.136;2023-06-14T11:57:57;5.18;;;2.53;;
64199;SDS011;50516;52.272;5.136;2023-06-14T12:00:26;3.95;;;2.70;;
64199;SDS011;50516;52.272;5.136;2023-06-14T12:02:55;7.20;;;3.58;;
64199;SDS011;50516;52.272;5.136;2023-06-14T12:05:22;3.38;;;2.40;;
64199;SDS011;50516;52.272;5.136;2023-06-14T12:07:49;3.63;;;2.58;;
64199;SDS011;50516;52.272;5.136;2023-06-14T12:10:15;3.95;;;2.53;;
64199;SDS011;50516;52.272;5.136;2023-06-14T12:12:41;5.55;;;2.40;;
64199;SDS011;50516;52.272;5.136;2023-06-14T12:15:08;5.25;;;3.58;;
64199;SDS011;50516;52.272;5.136;2023-06-14T12:17:36;9.93;;;2.70;;
64199;SDS011;50516;52.272;5.136;2023-06-14T12:20:07;7.28;;;2.60;;
64199;SDS011;50516;52.272;5.136;2023-06-14T12:22:41;6.07;;;2.85;;
64199;SDS011;50516;52.272;5.136;2023-06-14T12:25:22;4.82;;;2.35;;
64199;SDS011;50516;52.272;5.136;2023-06-14T12:27:51;3.70;;;2.30;;
64199;SDS011;50516;52.272;5.136;2023-06-14T12:30:17;7.20;;;2.90;;
64199;SDS011;50516;52.272;5.136;2023-06-14T12:32:42;6.68;;;2.80;;
64199;SDS011;50516;52.272;5.136;2023-06-14T12:35:09;4.22;;;2.63;;
64199;SDS011;50516;52.272;5.136;2023-06-14T12:37:34;5.30;;;2.55;;
64199;SDS011;50516;52.272;5.136;2023-06-14T12:39:59;6.32;;;2.55;;
64199;SDS011;50516;52.272;5.136;2023-06-14T12:42:24;5.50;;;3.05;;
64199;SDS011;50516;52.272;5.136;2023-06-14T12:44:55;4.22;;;2.55;;
64199;SDS011;50516;52.272;5.136;2023-06-14T12:47:21;7.13;;;2.72;;
64199;SDS011;50516;52.272;5.136;2023-06-14T12:49:46;4.30;;;2.60;;
64199;SDS011;50516;52.272;5.136;2023-06-14T12:52:11;3.70;;;2.33;;
64199;SDS011;50516;52.272;5.136;2023-06-14T12:54:38;4.97;;;2.72;;
64199;SDS011;50516;52.272;5.136;2023-06-14T12:57:06;5.93;;;2.45;;
64199;SDS011;50516;52.272;5.136;2023-06-14T12:59:32;6.22;;;2.50;;
64199;SDS011;50516;52.272;5.136;2023-06-14T13:01:59;3.88;;;2.53;;
64199;SDS011;50516;52.272;5.136;2023-06-14T13:04:25;4.95;;;2.30;;
64199;SDS011;50516;52.272;5.136;2023-06-14T13:06:50;5.00;;;2.78;;
64199;SDS011;50516;52.272;5.136;2023-06-14T13:09:15;7.30;;;2.50;;
64199;SDS011;50516;52.272;5.136;2023-06-14T13:11:41;6.93;;;2.80;;
64199;SDS011;50516;52.272;5.136;2023-06-14T13:14:10;4.38;;;2.50;;
64199;SDS011;50516;52.272;5.136;2023-06-14T13:16:36;5.78;;;2.30;;
64199;SDS011;50516;52.272;5.136;2023-06-14T13:19:01;4.68;;;2.65;;
64199;SDS011;50516;52.272;5.136;2023-06-14T13:21:27;8.05;;;2.88;;
64199;SDS011;50516;52.272;5.136;2023-06-14T13:23:52;3.88;;;2.50;;
64199;SDS011;50516;52.272;5.136;2023-06-14T13:26:18;9.48;;;3.20;;
64199;SDS011;50516;52.272;5.136;2023-06-14T13:28:44;4.88;;;2.53;;
64199;SDS011;50516;52.272;5.136;2023-06-14T13:31:09;6.40;;;3.00;;
64199;SDS011;50516;52.272;5.136;2023-06-14T13:33:35;5.32;;;2.83;;
64199;SDS011;50516;52.272;5.136;2023-06-14T13:36:00;5.00;;;2.90;;
64199;SDS011;50516;52.272;5.136;2023-06-14T13:38:25;10.57;;;2.88;;
64199;SDS011;50516;52.272;5.136;2023-06-14T13:40:51;9.90;;;2.70;;
64199;SDS011;50516;52.272;5.136;2023-06-14T13:43:16;8.38;;;2.75;;
64199;SDS011;50516;52.272;5.136;2023-06-14T13:45:41;9.48;;;2.90;;
64199;SDS011;50516;52.272;5.136;2023-06-14T13:48:07;6.40;;;2.63;;
64199;SDS011;50516;52.272;5.136;2023-06-14T13:50:32;5.90;;;2.85;;
64199;SDS011;50516;52.272;5.136;2023-06-14T13:52:58;9.75;;;2.90;;
64199;SDS011;50516;52.272;5.136;2023-06-14T13:55:23;5.85;;;2.90;;
64199;SDS011;50516;52.272;5.136;2023-06-14T13:57:49;7.32;;;3.05;;
64199;SDS011;50516;52.272;5.136;2023-06-14T14:00:15;9.18;;;3.03;;
64199;SDS011;50516;52.272;5.136;2023-06-14T14:02:41;4.30;;;2.50;;
64199;SDS011;50516;52.272;5.136;2023-06-14T14:05:10;5.25;;;2.80;;
64199;SDS011;50516;52.272;5.136;2023-06-14T14:07:37;7.97;;;2.97;;
64199;SDS011;50516;52.272;5.136;2023-06-14T14:10:03;5.05;;;3.22;;
64199;SDS011;50516;52.272;5.136;2023-06-14T14:12:29;5.88;;;2.67;;
64199;SDS011;50516;52.272;5.136;2023-06-14T14:14:54;4.43;;;2.92;;
64199;SDS011;50516;52.272;5.136;2023-06-14T14:17:19;6.28;;;3.00;;
64199;SDS011;50516;52.272;5.136;2023-06-14T14:19:45;6.28;;;2.85;;
64199;SDS011;50516;52.272;5.136;2023-06-14T14:22:10;3.78;;;2.38;;
64199;SDS011;50516;52.272;5.136;2023-06-14T14:24:35;6.32;;;2.67;;
64199;SDS011;50516;52.272;5.136;2023-06-14T14:27:01;5.13;;;2.40;;
64199;SDS011;50516;52.272;5.136;2023-06-14T14:29:27;4.13;;;2.38;;
64199;SDS011;50516;52.272;5.136;2023-06-14T14:31:54;4.82;;;2.92;;
64199;SDS011;50516;52.272;5.136;2023-06-14T14:34:20;5.65;;;3.00;;
64199;SDS011;50516;52.272;5.136;2023-06-14T14:36:45;4.82;;;2.53;;
64199;SDS011;50516;52.272;5.136;2023-06-14T14:39:11;4.07;;;2.55;;
64199;SDS011;50516;52.272;5.136;2023-06-14T14:41:36;7.18;;;2.60;;
64199;SDS011;50516;52.272;5.136;2023-06-14T14:44:03;5.28;;;2.60;;
64199;SDS011;50516;52.272;5.136;2023-06-14T14:46:29;4.90;;;2.60;;
64199;SDS011;50516;52.272;5.136;2023-06-14T14:48:54;5.03;;;2.65;;
64199;SDS011;50516;52.272;5.136;2023-06-14T14:51:19;5.65;;;2.85;;
64199;SDS011;50516;52.272;5.136;2023-06-14T14:53:45;6.32;;;2.60;;
64199;SDS011;50516;52.272;5.136;2023-06-14T14:56:10;3.80;;;2.78;;
64199;SDS011;50516;52.272;5.136;2023-06-14T14:58:36;4.07;;;2.78;;
64199;SDS011;50516;52.272;5.136;2023-06-14T15:01:02;3.33;;;2.65;;